sensor_id;sensor_type;location;lat;lon;timestamp;pressure;altitude;pressure_sealevel;temperature;humidity
20037;BME280;10179;42.640;23.312;2023-06-26T00:00:26;93564.50;;;23.80;57.60
20037;BME280;10179;42.640;23.312;2023-06-26T00:02:51;93527.81;;;23.67;57.72
20037;BME280;10179;42.640;23.312;2023-06-26T00:05:17;93457.84;;;23.15;57.89
20037;BME280;10179;42.640;23.312;2023-06-26T00:07:42;93545.84;;;23.75;57.85
20037;BME280;10179;42.640;23.312;2023-06-26T00:10:08;93548.06;;;23.73;58.02
20037;BME280;10179;42.640;23.312;2023-06-26T00:12:33;93456.09;;;23.10;58.10
20037;BME280;10179;42.640;23.312;2023-06-26T00:14:59;93548.19;;;23.68;58.07
20037;BME280;10179;42.640;23.312;2023-06-26T00:17:24;93546.06;;;23.65;58.38
20037;BME280;10179;42.640;23.312;2023-06-26T00:19:50;93516.47;;;23.39;58.44
20037;BME280;10179;42.640;23.312;2023-06-26T00:22:15;93557.75;;;23.60;58.46
20037;BME280;10179;42.640;23.312;2023-06-26T00:24:41;93553.78;;;23.57;58.72
20037;BME280;10179;42.640;23.312;2023-06-26T00:27:06;93486.22;;;23.16;58.55
20037;BME280;10179;42.640;23.312;2023-06-26T00:29:32;93557.84;;;23.55;58.80
20037;BME280;10179;42.640;23.312;2023-06-26T00:31:57;93525.16;;;23.44;58.53
20037;BME280;10179;42.640;23.312;2023-06-26T00:34:23;93426.09;;;22.77;58.65
20037;BME280;10179;42.640;23.312;2023-06-26T00:36:48;93533.88;;;23.50;58.57
20037;BME280;10179;42.640;23.312;2023-06-26T00:39:13;93543.97;;;23.53;58.44
20037;BME280;10179;42.640;23.312;2023-06-26T00:41:39;93517.88;;;23.36;59.01
20037;BME280;10179;42.640;23.312;2023-06-26T00:44:05;93481.63;;;23.07;58.77
20037;BME280;10179;42.640;23.312;2023-06-26T00:46:31;93454.59;;;22.95;58.76
20037;BME280;10179;42.640;23.312;2023-06-26T00:48:59;93543.63;;;23.46;58.92
20037;BME280;10179;42.640;23.312;2023-06-26T00:51:28;93539.66;;;23.43;58.82
20037;BME280;10179;42.640;23.312;2023-06-26T00:53:54;93470.84;;;22.99;58.76
20037;BME280;10179;42.640;23.312;2023-06-26T00:56:20;93472.00;;;23.06;58.99
20037;BME280;10179;42.640;23.312;2023-06-26T00:58:46;93508.97;;;23.27;58.87
20037;BME280;10179;42.640;23.312;2023-06-26T01:01:12;93530.94;;;23.38;58.79
20037;BME280;10179;42.640;23.312;2023-06-26T01:03:50;93517.88;;;23.36;59.23
20037;BME280;10179;42.640;23.312;2023-06-26T01:06:21;93522.44;;;23.36;58.79
20037;BME280;10179;42.640;23.312;2023-06-26T01:08:48;93527.31;;;23.33;58.93
20037;BME280;10179;42.640;23.312;2023-06-26T01:11:14;93478.16;;;23.07;58.90
20037;BME280;10179;42.640;23.312;2023-06-26T01:13:41;93453.13;;;22.89;58.88
20037;BME280;10179;42.640;23.312;2023-06-26T01:16:08;93440.94;;;22.83;59.18
20037;BME280;10179;42.640;23.312;2023-06-26T01:18:35;93427.81;;;22.73;58.95
20037;BME280;10179;42.640;23.312;2023-06-26T01:21:02;93460.13;;;22.99;58.42
20037;BME280;10179;42.640;23.312;2023-06-26T01:23:38;93504.44;;;23.27;58.79
20037;BME280;10179;42.640;23.312;2023-06-26T01:26:16;93497.19;;;23.28;58.82
20037;BME280;10179;42.640;23.312;2023-06-26T01:28:43;93436.09;;;22.85;58.52
20037;BME280;10179;42.640;23.312;2023-06-26T01:31:10;93486.53;;;23.14;58.61
20037;BME280;10179;42.640;23.312;2023-06-26T01:33:36;93497.91;;;23.20;58.92
20037;BME280;10179;42.640;23.312;2023-06-26T01:36:02;93483.69;;;23.10;58.64
20037;BME280;10179;42.640;23.312;2023-06-26T01:38:28;93488.44;;;23.14;58.87
20037;BME280;10179;42.640;23.312;2023-06-26T01:40:53;93431.94;;;22.79;58.78
20037;BME280;10179;42.640;23.312;2023-06-26T01:45:50;93465.56;;;22.85;58.72
20037;BME280;10179;42.640;23.312;2023-06-26T01:48:21;93472.56;;;22.95;58.65
20037;BME280;10179;42.640;23.312;2023-06-26T01:50:50;93431.16;;;22.56;58.44
20037;BME280;10179;42.640;23.312;2023-06-26T01:53:21;93482.22;;;23.04;58.57
20037;BME280;10179;42.640;23.312;2023-06-26T01:55:53;93487.91;;;23.03;58.45
20037;BME280;10179;42.640;23.312;2023-06-26T01:58:23;93481.72;;;23.02;58.41
20037;BME280;10179;42.640;23.312;2023-06-26T02:00:50;93489.91;;;22.97;58.62
20037;BME280;10179;42.640;23.312;2023-06-26T02:03:16;93471.97;;;22.84;58.27
20037;BME280;10179;42.640;23.312;2023-06-26T02:05:41;93421.84;;;22.53;58.68
20037;BME280;10179;42.640;23.312;2023-06-26T02:08:08;93481.16;;;22.92;58.69
20037;BME280;10179;42.640;23.312;2023-06-26T02:10:34;93491.47;;;22.98;58.15
20037;BME280;10179;42.640;23.312;2023-06-26T02:13:00;93479.69;;;22.99;58.33
20037;BME280;10179;42.640;23.312;2023-06-26T02:15:25;93452.34;;;22.89;58.21
20037;BME280;10179;42.640;23.312;2023-06-26T02:17:51;93401.25;;;22.54;57.97
20037;BME280;10179;42.640;23.312;2023-06-26T02:20:16;93438.56;;;22.81;58.06
20037;BME280;10179;42.640;23.312;2023-06-26T02:22:42;93446.31;;;22.83;57.85
20037;BME280;10179;42.640;23.312;2023-06-26T02:25:09;93442.78;;;22.74;57.87
20037;BME280;10179;42.640;23.312;2023-06-26T02:27:34;93412.75;;;22.54;58.01
20037;BME280;10179;42.640;23.312;2023-06-26T02:29:59;93381.28;;;22.37;57.87
20037;BME280;10179;42.640;23.312;2023-06-26T02:32:25;93426.00;;;22.59;57.98
20037;BME280;10179;42.640;23.312;2023-06-26T02:34:50;93361.25;;;22.12;57.78
20037;BME280;10179;42.640;23.312;2023-06-26T02:37:19;93464.00;;;22.70;58.09
20037;BME280;10179;42.640;23.312;2023-06-26T02:39:45;93486.34;;;22.88;58.06
20037;BME280;10179;42.640;23.312;2023-06-26T02:42:10;93417.38;;;22.40;58.19
20037;BME280;10179;42.640;23.312;2023-06-26T02:44:35;93492.34;;;22.85;58.31
20037;BME280;10179;42.640;23.312;2023-06-26T02:47:01;93457.31;;;22.59;58.22
20037;BME280;10179;42.640;23.312;2023-06-26T02:49:26;93473.34;;;22.73;58.14
20037;BME280;10179;42.640;23.312;2023-06-26T02:51:52;93494.88;;;22.90;58.34
20037;BME280;10179;42.640;23.312;2023-06-26T02:54:17;93496.44;;;22.91;58.24
20037;BME280;10179;42.640;23.312;2023-06-26T02:56:42;93498.88;;;22.93;58.21
20037;BME280;10179;42.640;23.312;2023-06-26T02:59:08;93429.41;;;22.51;58.38
20037;BME280;10179;42.640;23.312;2023-06-26T03:01:33;93506.59;;;22.94;58.00
20037;BME280;10179;42.640;23.312;2023-06-26T03:03:59;93499.66;;;22.93;58.11
20037;BME280;10179;42.640;23.312;2023-06-26T03:06:26;93492.09;;;22.95;57.78
20037;BME280;10179;42.640;23.312;2023-06-26T03:08:52;93398.56;;;22.31;57.75
20037;BME280;10179;42.640;23.312;2023-06-26T03:11:18;93460.44;;;22.75;57.54
20037;BME280;10179;42.640;23.312;2023-06-26T03:13:43;93501.59;;;23.01;57.83
20037;BME280;10179;42.640;23.312;2023-06-26T03:16:08;93473.19;;;22.78;57.56
20037;BME280;10179;42.640;23.312;2023-06-26T03:18:34;93472.31;;;22.82;57.67
20037;BME280;10179;42.640;23.312;2023-06-26T03:20:59;93504.75;;;23.03;57.35
20037;BME280;10179;42.640;23.312;2023-06-26T03:23:25;93474.75;;;22.93;57.19
20037;BME280;10179;42.640;23.312;2023-06-26T03:25:50;93478.81;;;22.90;57.14
20037;BME280;10179;42.640;23.312;2023-06-26T03:28:16;93496.59;;;23.08;57.31
20037;BME280;10179;42.640;23.312;2023-06-26T03:30:42;93404.03;;;22.49;57.10
20037;BME280;10179;42.640;23.312;2023-06-26T03:33:08;93499.44;;;23.12;56.94
20037;BME280;10179;42.640;23.312;2023-06-26T03:35:33;93486.13;;;22.98;57.29
20037;BME280;10179;42.640;23.312;2023-06-26T03:37:59;93464.13;;;22.87;57.17
20037;BME280;10179;42.640;23.312;2023-06-26T03:40:26;93506.69;;;23.12;57.13
20037;BME280;10179;42.640;23.312;2023-06-26T03:42:51;93462.56;;;22.86;56.96
20037;BME280;10179;42.640;23.312;2023-06-26T03:45:16;93511.28;;;23.11;57.19
20037;BME280;10179;42.640;23.312;2023-06-26T03:47:42;93454.44;;;22.78;57.38
20037;BME280;10179;42.640;23.312;2023-06-26T03:50:08;93443.88;;;22.73;57.18
20037;BME280;10179;42.640;23.312;2023-06-26T03:52:34;93482.97;;;22.96;56.99
20037;BME280;10179;42.640;23.312;2023-06-26T03:54:59;93487.41;;;23.01;56.96
20037;BME280;10179;42.640;23.312;2023-06-26T03:57:25;93477.22;;;22.89;57.18
20037;BME280;10179;42.640;23.312;2023-06-26T03:59:51;93500.47;;;23.02;57.39
20037;BME280;10179;42.640;23.312;2023-06-26T04:02:17;93378.34;;;22.25;57.38
20037;BME280;10179;42.640;23.312;2023-06-26T04:04:43;93467.00;;;22.69;57.56
20037;BME280;10179;42.640;23.312;2023-06-26T04:07:09;93477.22;;;22.89;57.25
20037;BME280;10179;42.640;23.312;2023-06-26T04:09:34;93449.09;;;22.78;57.12
20037;BME280;10179;42.640;23.312;2023-06-26T04:12:00;93504.50;;;23.14;57.10
20037;BME280;10179;42.640;23.312;2023-06-26T04:14:25;93460.75;;;22.96;57.06
20037;BME280;10179;42.640;23.312;2023-06-26T04:16:51;93498.44;;;23.30;56.70
20037;BME280;10179;42.640;23.312;2023-06-26T04:19:16;93501.78;;;23.36;56.68
20037;BME280;10179;42.640;23.312;2023-06-26T04:21:42;93420.63;;;22.82;55.95
20037;BME280;10179;42.640;23.312;2023-06-26T04:24:07;93471.09;;;23.20;56.39
20037;BME280;10179;42.640;23.312;2023-06-26T04:26:33;93498.69;;;23.51;56.19
20037;BME280;10179;42.640;23.312;2023-06-26T04:28:58;93501.72;;;23.58;55.62
20037;BME280;10179;42.640;23.312;2023-06-26T04:31:24;93500.81;;;23.63;55.64
20037;BME280;10179;42.640;23.312;2023-06-26T04:33:50;93465.72;;;23.42;55.47
20037;BME280;10179;42.640;23.312;2023-06-26T04:36:17;93496.59;;;23.71;55.03
20037;BME280;10179;42.640;23.312;2023-06-26T04:38:43;93504.84;;;23.83;54.76
20037;BME280;10179;42.640;23.312;2023-06-26T04:41:08;93449.19;;;23.57;54.66
20037;BME280;10179;42.640;23.312;2023-06-26T04:43:33;93512.53;;;24.16;54.73
20037;BME280;10179;42.640;23.312;2023-06-26T04:45:59;93513.78;;;24.27;54.18
20037;BME280;10179;42.640;23.312;2023-06-26T04:48:25;93486.44;;;24.08;53.82
20037;BME280;10179;42.640;23.312;2023-06-26T04:50:53;93513.16;;;24.39;53.63
20037;BME280;10179;42.640;23.312;2023-06-26T04:53:20;93448.88;;;24.08;53.83
20037;BME280;10179;42.640;23.312;2023-06-26T04:55:46;93516.38;;;24.67;53.68
20037;BME280;10179;42.640;23.312;2023-06-26T04:58:11;93449.88;;;24.46;53.09
20037;BME280;10179;42.640;23.312;2023-06-26T05:00:37;93508.78;;;25.04;52.50
20037;BME280;10179;42.640;23.312;2023-06-26T05:03:02;93469.25;;;24.95;52.28
20037;BME280;10179;42.640;23.312;2023-06-26T05:05:28;93463.88;;;24.95;51.46
20037;BME280;10179;42.640;23.312;2023-06-26T05:07:54;93427.72;;;24.84;51.65
20037;BME280;10179;42.640;23.312;2023-06-26T05:10:20;93496.44;;;25.20;51.65
20037;BME280;10179;42.640;23.312;2023-06-26T05:12:46;93454.25;;;24.94;51.50
20037;BME280;10179;42.640;23.312;2023-06-26T05:15:11;93524.25;;;25.41;51.42
20037;BME280;10179;42.640;23.312;2023-06-26T05:17:36;93539.41;;;25.37;51.33
20037;BME280;10179;42.640;23.312;2023-06-26T05:20:02;93522.97;;;25.30;51.40
20037;BME280;10179;42.640;23.312;2023-06-26T05:22:29;93451.91;;;24.67;51.50
20037;BME280;10179;42.640;23.312;2023-06-26T05:24:55;93533.63;;;25.18;51.58
20037;BME280;10179;42.640;23.312;2023-06-26T05:27:24;93531.22;;;25.08;51.47
20037;BME280;10179;42.640;23.312;2023-06-26T05:29:50;93530.91;;;25.00;51.64
20037;BME280;10179;42.640;23.312;2023-06-26T05:32:16;93530.59;;;24.93;51.92
20037;BME280;10179;42.640;23.312;2023-06-26T05:34:47;93479.09;;;24.57;52.34
20037;BME280;10179;42.640;23.312;2023-06-26T05:37:20;93479.75;;;24.54;52.47
20037;BME280;10179;42.640;23.312;2023-06-26T05:39:47;93542.00;;;24.90;52.50
20037;BME280;10179;42.640;23.312;2023-06-26T05:42:13;93473.22;;;24.37;52.56
20037;BME280;10179;42.640;23.312;2023-06-26T05:44:39;93513.06;;;24.70;52.70
20037;BME280;10179;42.640;23.312;2023-06-26T05:47:04;93477.38;;;24.43;52.70
20037;BME280;10179;42.640;23.312;2023-06-26T05:49:30;93544.53;;;24.78;52.67
20037;BME280;10179;42.640;23.312;2023-06-26T05:51:56;93451.41;;;24.21;53.05
20037;BME280;10179;42.640;23.312;2023-06-26T05:54:23;93544.03;;;24.76;52.93
20037;BME280;10179;42.640;23.312;2023-06-26T05:56:51;93480.34;;;24.33;52.85
20037;BME280;10179;42.640;23.312;2023-06-26T05:59:22;93550.34;;;24.80;52.88
20037;BME280;10179;42.640;23.312;2023-06-26T06:01:47;93509.44;;;24.66;53.16
20037;BME280;10179;42.640;23.312;2023-06-26T06:04:13;93544.50;;;24.95;53.14
20037;BME280;10179;42.640;23.312;2023-06-26T06:06:38;93487.94;;;24.66;52.89
20037;BME280;10179;42.640;23.312;2023-06-26T06:09:04;93538.50;;;25.16;52.40
20037;BME280;10179;42.640;23.312;2023-06-26T06:11:29;93544.97;;;25.23;52.44
20037;BME280;10179;42.640;23.312;2023-06-26T06:13:55;93503.75;;;25.11;52.04
20037;BME280;10179;42.640;23.312;2023-06-26T06:16:20;93495.50;;;25.16;51.72
20037;BME280;10179;42.640;23.312;2023-06-26T06:18:45;93548.56;;;25.54;51.71
20037;BME280;10179;42.640;23.312;2023-06-26T06:21:11;93471.94;;;25.13;51.73
20037;BME280;10179;42.640;23.312;2023-06-26T06:23:36;93545.03;;;25.70;50.88
20037;BME280;10179;42.640;23.312;2023-06-26T06:26:03;93501.56;;;25.60;50.90
20037;BME280;10179;42.640;23.312;2023-06-26T06:28:29;93545.31;;;25.86;50.36
20037;BME280;10179;42.640;23.312;2023-06-26T06:30:54;93503.25;;;25.73;50.40
20037;BME280;10179;42.640;23.312;2023-06-26T06:33:19;93533.09;;;25.98;50.44
20037;BME280;10179;42.640;23.312;2023-06-26T06:35:45;93534.19;;;25.97;49.57
20037;BME280;10179;42.640;23.312;2023-06-26T06:38:10;93540.69;;;25.96;49.61
20037;BME280;10179;42.640;23.312;2023-06-26T06:40:36;93545.16;;;25.91;49.91
20037;BME280;10179;42.640;23.312;2023-06-26T06:43:01;93538.19;;;25.90;49.89
20037;BME280;10179;42.640;23.312;2023-06-26T06:45:27;93541.53;;;25.87;49.82
20037;BME280;10179;42.640;23.312;2023-06-26T06:47:52;93530.13;;;25.90;50.16
20037;BME280;10179;42.640;23.312;2023-06-26T06:50:18;93476.22;;;25.61;50.13
20037;BME280;10179;42.640;23.312;2023-06-26T06:52:43;93535.38;;;26.16;49.65
20037;BME280;10179;42.640;23.312;2023-06-26T06:55:10;93540.31;;;26.35;49.57
20037;BME280;10179;42.640;23.312;2023-06-26T06:57:37;93506.22;;;26.39;48.18
20037;BME280;10179;42.640;23.312;2023-06-26T07:00:08;93505.44;;;26.69;47.73
20037;BME280;10179;42.640;23.312;2023-06-26T07:02:44;93496.16;;;26.78;47.10
20037;BME280;10179;42.640;23.312;2023-06-26T07:05:10;93489.25;;;26.89;46.30
20037;BME280;10179;42.640;23.312;2023-06-26T07:07:36;93521.25;;;27.12;46.18
20037;BME280;10179;42.640;23.312;2023-06-26T07:10:06;93507.34;;;27.22;46.67
20037;BME280;10179;42.640;23.312;2023-06-26T07:12:33;93535.19;;;27.47;46.49
20037;BME280;10179;42.640;23.312;2023-06-26T07:15:00;93529.47;;;27.61;45.33
20037;BME280;10179;42.640;23.312;2023-06-26T07:17:25;93521.56;;;27.77;44.59
20037;BME280;10179;42.640;23.312;2023-06-26T07:19:51;93529.78;;;27.93;44.74
20037;BME280;10179;42.640;23.312;2023-06-26T07:22:16;93488.72;;;27.87;44.66
20037;BME280;10179;42.640;23.312;2023-06-26T07:24:44;93529.34;;;28.27;43.31
20037;BME280;10179;42.640;23.312;2023-06-26T07:27:09;93491.28;;;28.20;42.54
20037;BME280;10179;42.640;23.312;2023-06-26T07:29:34;93461.81;;;28.03;41.95
20037;BME280;10179;42.640;23.312;2023-06-26T07:32:00;93492.41;;;28.31;42.27
20037;BME280;10179;42.640;23.312;2023-06-26T07:34:25;93505.47;;;28.42;42.44
20037;BME280;10179;42.640;23.312;2023-06-26T07:36:51;93527.06;;;28.66;42.42
20037;BME280;10179;42.640;23.312;2023-06-26T07:39:16;93530.06;;;28.77;41.18
20037;BME280;10179;42.640;23.312;2023-06-26T07:41:41;93504.38;;;28.71;41.49
20037;BME280;10179;42.640;23.312;2023-06-26T07:44:07;93528.31;;;28.97;41.14
20037;BME280;10179;42.640;23.312;2023-06-26T07:46:32;93464.88;;;28.66;40.71
20037;BME280;10179;42.640;23.312;2023-06-26T07:48:58;93483.25;;;28.89;40.38
20037;BME280;10179;42.640;23.312;2023-06-26T07:51:23;93531.50;;;29.27;39.33
20037;BME280;10179;42.640;23.312;2023-06-26T07:53:49;93497.06;;;29.12;39.03
20037;BME280;10179;42.640;23.312;2023-06-26T07:56:14;93521.91;;;29.30;40.27
20037;BME280;10179;42.640;23.312;2023-06-26T07:58:40;93511.19;;;29.33;39.77
20037;BME280;10179;42.640;23.312;2023-06-26T08:01:05;93502.38;;;29.36;39.26
20037;BME280;10179;42.640;23.312;2023-06-26T08:03:30;93438.00;;;28.86;38.82
20037;BME280;10179;42.640;23.312;2023-06-26T08:05:56;93478.31;;;29.03;38.41
20037;BME280;10179;42.640;23.312;2023-06-26T08:08:22;93511.09;;;29.30;39.03
20037;BME280;10179;42.640;23.312;2023-06-26T08:10:47;93533.88;;;29.44;39.22
20037;BME280;10179;42.640;23.312;2023-06-26T08:13:13;93477.78;;;29.13;39.57
20037;BME280;10179;42.640;23.312;2023-06-26T08:15:38;93527.47;;;29.49;39.31
20037;BME280;10179;42.640;23.312;2023-06-26T08:18:04;93522.72;;;29.46;37.91
20037;BME280;10179;42.640;23.312;2023-06-26T08:20:30;93482.41;;;29.13;38.82
20037;BME280;10179;42.640;23.312;2023-06-26T08:22:55;93518.59;;;29.64;39.19
20037;BME280;10179;42.640;23.312;2023-06-26T08:25:20;93523.22;;;29.64;37.80
20037;BME280;10179;42.640;23.312;2023-06-26T08:27:46;93495.09;;;29.24;38.81
20037;BME280;10179;42.640;23.312;2023-06-26T08:30:12;93495.22;;;29.00;38.28
20037;BME280;10179;42.640;23.312;2023-06-26T08:32:38;93479.28;;;28.70;39.50
20037;BME280;10179;42.640;23.312;2023-06-26T08:35:05;93485.88;;;28.45;39.54
20037;BME280;10179;42.640;23.312;2023-06-26T08:37:31;93534.75;;;28.52;40.35
20037;BME280;10179;42.640;23.312;2023-06-26T08:40:00;93502.78;;;28.17;40.47
20037;BME280;10179;42.640;23.312;2023-06-26T08:42:26;93531.69;;;28.53;40.36
20037;BME280;10179;42.640;23.312;2023-06-26T08:44:51;93536.94;;;28.74;39.91
20037;BME280;10179;42.640;23.312;2023-06-26T08:47:18;93472.88;;;28.75;39.24
20037;BME280;10179;42.640;23.312;2023-06-26T08:50:13;93536.31;;;29.62;38.47
20037;BME280;10179;42.640;23.312;2023-06-26T08:55:43;93518.09;;;29.46;38.40
20037;BME280;10179;42.640;23.312;2023-06-26T08:58:09;93494.28;;;29.08;38.64
20037;BME280;10179;42.640;23.312;2023-06-26T09:00:35;93511.44;;;29.00;38.90
20037;BME280;10179;42.640;23.312;2023-06-26T09:03:03;93525.94;;;28.95;39.11
20037;BME280;10179;42.640;23.312;2023-06-26T09:05:29;93535.59;;;28.81;38.95
20037;BME280;10179;42.640;23.312;2023-06-26T09:07:54;93483.47;;;28.68;38.57
20037;BME280;10179;42.640;23.312;2023-06-26T09:10:21;93528.66;;;29.36;37.52
20037;BME280;10179;42.640;23.312;2023-06-26T09:12:47;93508.50;;;29.49;36.41
20037;BME280;10179;42.640;23.312;2023-06-26T09:15:16;93504.59;;;29.62;37.25
20037;BME280;10179;42.640;23.312;2023-06-26T09:17:44;93523.13;;;29.60;37.59
20037;BME280;10179;42.640;23.312;2023-06-26T09:20:09;93493.13;;;29.09;37.03
20037;BME280;10179;42.640;23.312;2023-06-26T09:22:41;93486.91;;;28.81;38.03
20037;BME280;10179;42.640;23.312;2023-06-26T09:25:08;93490.28;;;28.77;38.82
20037;BME280;10179;42.640;23.312;2023-06-26T09:27:35;93469.22;;;28.43;38.83
20037;BME280;10179;42.640;23.312;2023-06-26T09:30:02;93493.28;;;28.60;38.15
20037;BME280;10179;42.640;23.312;2023-06-26T09:32:28;93502.41;;;28.56;38.51
20037;BME280;10179;42.640;23.312;2023-06-26T09:34:54;93521.84;;;28.86;38.50
20037;BME280;10179;42.640;23.312;2023-06-26T09:37:22;93512.06;;;29.09;39.45
20037;BME280;10179;42.640;23.312;2023-06-26T09:39:48;93482.19;;;29.18;37.69
20037;BME280;10179;42.640;23.312;2023-06-26T09:42:15;93467.09;;;29.33;37.45
20037;BME280;10179;42.640;23.312;2023-06-26T09:44:49;93508.47;;;29.93;38.17
20037;BME280;10179;42.640;23.312;2023-06-26T09:47:17;93505.06;;;29.96;35.51
20037;BME280;10179;42.640;23.312;2023-06-26T09:49:43;93518.25;;;30.13;36.53
20037;BME280;10179;42.640;23.312;2023-06-26T09:52:09;93522.81;;;30.25;35.51
20037;BME280;10179;42.640;23.312;2023-06-26T09:54:35;93528.06;;;30.18;35.46
20037;BME280;10179;42.640;23.312;2023-06-26T09:57:11;93513.34;;;30.03;35.03
20037;BME280;10179;42.640;23.312;2023-06-26T09:59:37;93505.69;;;30.05;34.57
20037;BME280;10179;42.640;23.312;2023-06-26T10:02:03;93516.66;;;30.44;33.62
20037;BME280;10179;42.640;23.312;2023-06-26T10:04:28;93514.41;;;30.65;33.91
20037;BME280;10179;42.640;23.312;2023-06-26T10:06:58;93523.19;;;30.94;32.83
20037;BME280;10179;42.640;23.312;2023-06-26T10:09:26;93516.22;;;31.32;33.17
20037;BME280;10179;42.640;23.312;2023-06-26T10:11:57;93520.63;;;31.40;33.15
20037;BME280;10179;42.640;23.312;2023-06-26T10:14:26;93486.16;;;31.44;33.37
20037;BME280;10179;42.640;23.312;2023-06-26T10:16:52;93494.16;;;31.56;32.02
20037;BME280;10179;42.640;23.312;2023-06-26T10:19:21;93470.25;;;31.23;32.53
20037;BME280;10179;42.640;23.312;2023-06-26T10:21:53;93502.53;;;31.09;33.05
20037;BME280;10179;42.640;23.312;2023-06-26T10:24:21;93442.69;;;30.63;33.46
20037;BME280;10179;42.640;23.312;2023-06-26T10:26:50;93517.63;;;30.87;33.12
20037;BME280;10179;42.640;23.312;2023-06-26T10:29:17;93405.91;;;29.76;33.82
20037;BME280;10179;42.640;23.312;2023-06-26T10:31:49;93454.03;;;29.82;33.74
20037;BME280;10179;42.640;23.312;2023-06-26T10:34:15;93459.28;;;29.75;34.28
20037;BME280;10179;42.640;23.312;2023-06-26T10:36:41;93456.59;;;29.59;33.19
20037;BME280;10179;42.640;23.312;2023-06-26T10:39:06;93453.22;;;29.34;32.68
20037;BME280;10179;42.640;23.312;2023-06-26T10:41:41;93462.66;;;29.24;33.84
20037;BME280;10179;42.640;23.312;2023-06-26T10:44:19;93503.44;;;29.47;34.28
20037;BME280;10179;42.640;23.312;2023-06-26T10:46:56;93505.81;;;29.49;34.07
20037;BME280;10179;42.640;23.312;2023-06-26T10:49:29;93505.06;;;29.20;33.32
20037;BME280;10179;42.640;23.312;2023-06-26T10:51:55;93428.25;;;28.41;35.14
20037;BME280;10179;42.640;23.312;2023-06-26T10:54:23;93476.31;;;28.47;36.34
20037;BME280;10179;42.640;23.312;2023-06-26T10:56:54;93497.78;;;28.68;36.80
20037;BME280;10179;42.640;23.312;2023-06-26T10:59:23;93477.06;;;28.60;35.27
20037;BME280;10179;42.640;23.312;2023-06-26T11:02:04;93500.97;;;28.86;35.12
20037;BME280;10179;42.640;23.312;2023-06-26T11:07:22;93504.63;;;29.06;34.99
20037;BME280;10179;42.640;23.312;2023-06-26T11:12:43;93439.91;;;28.57;36.08
20037;BME280;10179;42.640;23.312;2023-06-26T11:15:11;93446.59;;;28.47;35.66
20037;BME280;10179;42.640;23.312;2023-06-26T11:17:37;93460.22;;;28.39;36.42
20037;BME280;10179;42.640;23.312;2023-06-26T11:20:08;93490.59;;;28.48;36.17
20037;BME280;10179;42.640;23.312;2023-06-26T11:22:35;93471.47;;;28.28;36.21
20037;BME280;10179;42.640;23.312;2023-06-26T11:25:02;93458.19;;;28.11;36.14
20037;BME280;10179;42.640;23.312;2023-06-26T11:30:04;93446.72;;;28.26;36.87
20037;BME280;10179;42.640;23.312;2023-06-26T11:32:30;93475.69;;;28.66;36.41
20037;BME280;10179;42.640;23.312;2023-06-26T11:34:58;93492.31;;;28.81;35.85
20037;BME280;10179;42.640;23.312;2023-06-26T11:37:24;93488.56;;;28.85;36.78
20037;BME280;10179;42.640;23.312;2023-06-26T11:39:49;93487.09;;;29.00;36.37
20037;BME280;10179;42.640;23.312;2023-06-26T11:42:16;93351.22;;;28.06;35.20
20037;BME280;10179;42.640;23.312;2023-06-26T11:44:42;93434.19;;;28.74;34.54
20037;BME280;10179;42.640;23.312;2023-06-26T11:47:18;93470.41;;;28.98;34.26
20037;BME280;10179;42.640;23.312;2023-06-26T11:49:48;93481.53;;;29.09;34.41
20037;BME280;10179;42.640;23.312;2023-06-26T11:52:15;93488.59;;;29.13;34.59
20037;BME280;10179;42.640;23.312;2023-06-26T11:54:42;93469.28;;;28.99;34.41
20037;BME280;10179;42.640;23.312;2023-06-26T11:57:08;93465.56;;;28.91;34.82
20037;BME280;10179;42.640;23.312;2023-06-26T11:59:35;93497.19;;;29.15;34.70
20037;BME280;10179;42.640;23.312;2023-06-26T12:02:07;93442.69;;;28.89;35.07
20037;BME280;10179;42.640;23.312;2023-06-26T12:04:34;93479.25;;;29.39;34.11
20037;BME280;10179;42.640;23.312;2023-06-26T12:07:01;93481.25;;;29.42;34.72
20037;BME280;10179;42.640;23.312;2023-06-26T12:09:29;93478.97;;;29.44;35.17
20037;BME280;10179;42.640;23.312;2023-06-26T12:11:55;93479.44;;;29.46;34.87
20037;BME280;10179;42.640;23.312;2023-06-26T12:14:22;93469.13;;;29.52;34.31
20037;BME280;10179;42.640;23.312;2023-06-26T12:16:47;93471.34;;;29.62;34.13
20037;BME280;10179;42.640;23.312;2023-06-26T12:19:12;93472.13;;;29.62;34.21
20037;BME280;10179;42.640;23.312;2023-06-26T12:24:09;93473.72;;;29.63;34.73
20037;BME280;10179;42.640;23.312;2023-06-26T12:26:35;93473.63;;;29.60;33.87
20037;BME280;10179;42.640;23.312;2023-06-26T12:31:32;93475.06;;;29.57;33.90
20037;BME280;10179;42.640;23.312;2023-06-26T12:33:58;93476.53;;;29.55;33.34
20037;BME280;10179;42.640;23.312;2023-06-26T12:36:23;93469.19;;;29.39;34.11
20037;BME280;10179;42.640;23.312;2023-06-26T12:38:49;93469.72;;;29.29;34.26
20037;BME280;10179;42.640;23.312;2023-06-26T12:41:14;93486.03;;;29.33;33.87
20037;BME280;10179;42.640;23.312;2023-06-26T12:43:40;93482.56;;;29.32;33.95
20037;BME280;10179;42.640;23.312;2023-06-26T12:46:06;93476.59;;;29.27;34.86
20037;BME280;10179;42.640;23.312;2023-06-26T12:48:37;93479.22;;;29.23;34.39
20037;BME280;10179;42.640;23.312;2023-06-26T12:51:13;93472.59;;;29.20;34.91
20037;BME280;10179;42.640;23.312;2023-06-26T12:53:39;93476.41;;;29.19;34.63
20037;BME280;10179;42.640;23.312;2023-06-26T12:56:08;93480.25;;;29.18;34.49
20037;BME280;10179;42.640;23.312;2023-06-26T12:58:34;93477.78;;;29.13;34.72
20037;BME280;10179;42.640;23.312;2023-06-26T13:01:02;93473.50;;;29.12;34.59
20037;BME280;10179;42.640;23.312;2023-06-26T13:03:28;93471.50;;;29.09;34.46
20037;BME280;10179;42.640;23.312;2023-06-26T13:05:53;93476.91;;;29.09;34.75